createdAt,value
2023-09-14T00:01:31.983Z,16.21
2023-09-14T00:03:58.803Z,16.09
2023-09-14T00:06:25.386Z,16.29
2023-09-14T00:08:51.924Z,16.33
2023-09-14T00:11:18.363Z,16.27
2023-09-14T00:13:44.901Z,16.03
2023-09-14T00:16:11.558Z,15.97
2023-09-14T00:18:38.186Z,16.11
2023-09-14T00:21:04.881Z,16.20
2023-09-14T00:23:31.331Z,16.17
2023-09-14T00:25:57.794Z,15.82
2023-09-14T00:28:24.402Z,16.19
2023-09-14T00:30:54.318Z,16.24
2023-09-14T00:33:21.870Z,16.27
2023-09-14T00:35:48.333Z,15.98
2023-09-14T00:38:15.094Z,16.11
2023-09-14T00:40:41.558Z,15.96
2023-09-14T00:43:08.394Z,16.04
2023-09-14T00:45:35.172Z,15.83
2023-09-14T00:48:03.708Z,15.82
2023-09-14T00:50:31.181Z,16.03
2023-09-14T00:53:00.063Z,15.78
2023-09-14T00:55:27.000Z,16.01
2023-09-14T00:57:53.752Z,16.01
2023-09-14T01:00:20.273Z,15.65
2023-09-14T01:02:47.336Z,15.90
2023-09-14T01:05:17.588Z,15.82
2023-09-14T01:07:44.175Z,16.00
2023-09-14T01:10:17.070Z,15.93
2023-09-14T01:12:44.354Z,16.06
2023-09-14T01:15:17.117Z,15.91
2023-09-14T01:18:02.352Z,15.71
2023-09-14T01:20:32.372Z,15.72
2023-09-14T01:23:10.505Z,15.59
2023-09-14T01:25:43.990Z,15.57
2023-09-14T01:28:11.140Z,15.62
2023-09-14T01:30:40.525Z,15.62
2023-09-14T01:33:08.128Z,15.59
2023-09-14T01:35:38.880Z,15.56
2023-09-14T01:38:05.739Z,15.40
2023-09-14T01:40:33.808Z,15.46
2023-09-14T01:43:00.789Z,15.46
2023-09-14T01:45:27.229Z,15.48
2023-09-14T01:47:54.459Z,15.45
2023-09-14T01:50:20.949Z,15.44
2023-09-14T01:52:47.475Z,15.38
2023-09-14T01:55:14.490Z,15.30
2023-09-14T01:57:41.051Z,15.23
2023-09-14T02:00:07.892Z,15.25
2023-09-14T02:02:34.375Z,15.09
2023-09-14T02:05:00.866Z,15.10
2023-09-14T02:07:27.292Z,15.06
2023-09-14T02:09:53.742Z,14.98
2023-09-14T02:12:21.697Z,15.04
2023-09-14T02:14:48.215Z,15.16
2023-09-14T02:17:14.654Z,15.05
2023-09-14T02:19:41.097Z,15.01
2023-09-14T02:22:07.535Z,14.94
2023-09-14T02:24:34.120Z,15.06
2023-09-14T02:27:00.716Z,15.05
2023-09-14T02:29:27.175Z,14.99
2023-09-14T02:46:49.278Z,13.82
2023-09-14T02:49:15.916Z,14.28
2023-09-14T02:51:42.610Z,14.22
2023-09-14T02:54:09.347Z,14.37
2023-09-14T02:56:35.795Z,14.52
2023-09-14T02:59:03.083Z,14.33
2023-09-14T03:01:31.228Z,14.29
2023-09-14T03:03:58.530Z,14.43
2023-09-14T03:06:25.420Z,14.53
2023-09-14T03:09:25.747Z,14.69
2023-09-14T03:11:52.526Z,14.41
2023-09-14T03:14:19.002Z,14.19
2023-09-14T03:16:45.626Z,14.07
2023-09-14T03:19:12.485Z,14.08
2023-09-14T03:21:39.159Z,14.06
2023-09-14T03:24:05.964Z,14.16
2023-09-14T03:26:32.449Z,14.28
2023-09-14T03:28:58.976Z,14.05
2023-09-14T03:31:26.891Z,14.21
2023-09-14T03:33:53.997Z,14.27
2023-09-14T03:36:21.319Z,14.48
2023-09-14T03:38:48.179Z,14.59
2023-09-14T03:41:15.315Z,14.43
2023-09-14T03:43:42.336Z,14.27
2023-09-14T03:46:10.404Z,13.97
2023-09-14T03:48:37.405Z,14.15
2023-09-14T03:51:05.022Z,13.97
2023-09-14T03:53:34.796Z,13.97
2023-09-14T03:56:01.665Z,14.32
2023-09-14T03:58:28.356Z,14.27
2023-09-14T04:00:56.440Z,14.22
2023-09-14T04:03:23.409Z,14.23
2023-09-14T04:05:50.140Z,14.25
2023-09-14T04:08:16.960Z,14.45
2023-09-14T04:10:43.482Z,14.11
2023-09-14T04:13:34.262Z,13.88
2023-09-14T04:16:02.859Z,14.04
2023-09-14T04:18:30.306Z,13.86
2023-09-14T04:20:56.882Z,13.75
2023-09-14T04:23:23.512Z,13.52
2023-09-14T04:25:50.481Z,13.65
2023-09-14T04:28:18.940Z,13.76
2023-09-14T04:30:50.832Z,13.71
2023-09-14T04:33:18.391Z,13.94
2023-09-14T04:35:45.470Z,14.12
2023-09-14T04:38:12.222Z,14.04
2023-09-14T04:40:39.968Z,13.93
2023-09-14T04:43:06.764Z,13.73
2023-09-14T04:45:33.777Z,13.79
2023-09-14T04:48:01.344Z,13.81
2023-09-14T04:50:28.733Z,13.71
2023-09-14T04:53:01.672Z,13.76
2023-09-14T04:55:28.211Z,13.61
2023-09-14T04:57:54.842Z,13.65
2023-09-14T05:00:21.484Z,13.83
2023-09-14T05:02:48.115Z,13.48
2023-09-14T05:05:14.726Z,13.47
2023-09-14T05:07:44.165Z,13.57
2023-09-14T05:10:11.704Z,13.62
2023-09-14T05:12:38.579Z,13.65
2023-09-14T05:15:05.646Z,13.48
2023-09-14T05:17:32.523Z,13.52
2023-09-14T05:19:59.220Z,13.84
2023-09-14T05:22:26.982Z,13.85
2023-09-14T05:24:54.471Z,13.84
2023-09-14T05:27:21.231Z,13.71
2023-09-14T05:29:48.104Z,13.67
2023-09-14T05:32:15.392Z,13.66
2023-09-14T05:34:42.456Z,13.70
2023-09-14T05:37:09.652Z,13.72
2023-09-14T05:39:36.437Z,13.70
2023-09-14T05:42:03.984Z,13.82
2023-09-14T05:44:36.564Z,13.25
2023-09-14T05:47:03.990Z,13.40
2023-09-14T05:49:30.983Z,13.53
2023-09-14T05:51:58.758Z,13.53
2023-09-14T05:54:25.565Z,13.75
2023-09-14T05:56:52.296Z,14.08
2023-09-14T05:59:31.289Z,13.64
2023-09-14T06:01:59.726Z,13.94
2023-09-14T06:04:26.507Z,14.04
2023-09-14T06:07:10.882Z,14.00
2023-09-14T06:09:38.392Z,14.12
2023-09-14T06:12:05.624Z,14.14
2023-09-14T06:14:34.209Z,14.35
2023-09-14T06:17:02.473Z,14.51
2023-09-14T06:19:29.652Z,14.42
2023-09-14T06:21:56.430Z,14.33
2023-09-14T06:24:23.319Z,14.55
2023-09-14T06:26:52.659Z,14.43
2023-09-14T06:29:19.643Z,14.56
2023-09-14T06:31:46.607Z,14.37
2023-09-14T06:34:13.679Z,14.71
2023-09-14T06:36:40.654Z,14.68
2023-09-14T06:39:10.063Z,14.42
2023-09-14T06:41:46.362Z,14.67
2023-09-14T06:44:15.462Z,14.69
2023-09-14T06:46:45.005Z,14.78
2023-09-14T06:49:11.938Z,14.60
2023-09-14T06:51:38.631Z,14.55
2023-09-14T06:54:06.098Z,14.58
2023-09-14T06:56:37.700Z,14.80
2023-09-14T06:59:04.544Z,14.58
2023-09-14T07:01:31.465Z,15.24
2023-09-14T07:03:58.437Z,15.21
2023-09-14T07:06:25.220Z,15.22
2023-09-14T07:08:52.132Z,14.85
2023-09-14T07:11:19.611Z,14.88
2023-09-14T07:13:46.370Z,15.13
2023-09-14T07:16:13.183Z,15.03
2023-09-14T07:18:39.674Z,15.26
2023-09-14T07:21:06.183Z,15.30
2023-09-14T07:23:32.638Z,15.20
2023-09-14T07:25:59.127Z,15.41
2023-09-14T07:28:25.683Z,15.57
2023-09-14T07:30:53.212Z,15.57
2023-09-14T07:33:20.288Z,15.68
2023-09-14T07:35:46.935Z,15.78
2023-09-14T07:38:14.042Z,15.79
2023-09-14T07:40:41.964Z,15.71
2023-09-14T07:43:08.695Z,15.82
2023-09-14T07:45:35.316Z,15.93
2023-09-14T07:48:04.033Z,15.91
2023-09-14T07:50:30.565Z,16.08
2023-09-14T07:52:57.209Z,16.03
2023-09-14T07:55:24.442Z,16.12
2023-09-14T07:57:50.995Z,15.98
2023-09-14T08:00:17.517Z,16.09
2023-09-14T08:02:44.304Z,16.37
2023-09-14T08:05:10.847Z,16.41
2023-09-14T08:07:37.580Z,16.18
2023-09-14T08:10:04.728Z,16.49
2023-09-14T08:12:31.240Z,16.45
2023-09-14T08:14:57.830Z,16.61
2023-09-14T08:17:24.377Z,16.78
2023-09-14T08:19:50.954Z,16.79
2023-09-14T08:22:24.005Z,16.96
2023-09-14T08:24:53.956Z,16.92
2023-09-14T08:27:20.563Z,16.96
2023-09-14T08:29:47.319Z,16.82
2023-09-14T08:32:14.281Z,16.74
2023-09-14T08:34:40.966Z,16.96
2023-09-14T08:37:12.171Z,16.69
2023-09-14T08:39:39.489Z,17.17
2023-09-14T08:42:06.074Z,16.89
2023-09-14T08:44:35.841Z,16.88
2023-09-14T08:47:33.227Z,16.83
2023-09-14T08:50:01.622Z,16.81
2023-09-14T08:52:28.741Z,16.81
2023-09-14T08:54:57.677Z,17.16
2023-09-14T08:57:28.655Z,17.48
2023-09-14T09:00:00.604Z,17.14
2023-09-14T09:02:28.875Z,17.53
2023-09-14T09:04:55.697Z,17.36
2023-09-14T09:07:22.520Z,17.20
2023-09-14T09:09:50.567Z,17.18
2023-09-14T09:12:18.379Z,16.91
2023-09-14T09:14:45.502Z,17.43
2023-09-14T09:17:17.641Z,17.46
2023-09-14T09:19:53.861Z,17.50
2023-09-14T09:22:20.981Z,17.78
2023-09-14T09:24:47.985Z,17.56
2023-09-14T09:27:28.294Z,17.88
2023-09-14T09:30:01.819Z,17.61
2023-09-14T09:32:28.507Z,17.43
2023-09-14T09:34:55.056Z,17.80
2023-09-14T09:37:24.357Z,17.67
2023-09-14T09:39:52.432Z,17.63
2023-09-14T09:42:20.861Z,17.63
2023-09-14T09:44:48.315Z,18.06
2023-09-14T09:47:14.872Z,18.33
2023-09-14T09:49:41.407Z,18.16
2023-09-14T09:52:13.991Z,17.70
2023-09-14T09:54:41.249Z,18.02
2023-09-14T09:57:08.856Z,18.31
2023-09-14T09:59:35.400Z,18.28
2023-09-14T10:02:01.936Z,18.07
2023-09-14T10:04:31.471Z,18.17
2023-09-14T10:07:00.348Z,17.77
2023-09-14T10:09:34.008Z,17.54
2023-09-14T10:12:04.584Z,17.87
2023-09-14T10:14:33.525Z,18.05
2023-09-14T10:17:04.662Z,18.11
2023-09-14T10:19:32.299Z,18.18
2023-09-14T10:22:01.466Z,18.19
2023-09-14T10:24:28.395Z,18.44
2023-09-14T10:26:55.149Z,18.77
2023-09-14T10:29:24.369Z,18.57
2023-09-14T10:31:54.225Z,18.26
2023-09-14T10:34:21.458Z,18.42
2023-09-14T10:36:51.585Z,18.75
2023-09-14T10:39:23.559Z,18.85
2023-09-14T10:41:50.326Z,18.74
2023-09-14T10:44:16.930Z,18.77
2023-09-14T10:46:45.669Z,18.81
2023-09-14T10:49:18.448Z,19.13
2023-09-14T10:51:46.382Z,18.80
2023-09-14T10:54:14.228Z,18.82
2023-09-14T10:56:40.881Z,18.77
2023-09-14T10:59:11.271Z,18.88
2023-09-14T11:04:20.679Z,19.23
2023-09-14T11:06:54.004Z,19.05
2023-09-14T11:09:22.651Z,18.74
2023-09-14T11:11:54.844Z,18.79
2023-09-14T11:14:26.654Z,18.28
2023-09-14T11:16:57.439Z,18.43
2023-09-14T11:19:42.968Z,18.62
2023-09-14T11:22:18.350Z,18.61
2023-09-14T11:24:46.517Z,18.70
2023-09-14T11:27:21.299Z,19.01
2023-09-14T11:29:51.375Z,19.01
2023-09-14T11:32:25.424Z,19.26
2023-09-14T11:34:57.846Z,19.56
2023-09-14T11:37:29.188Z,19.55
2023-09-14T11:39:59.564Z,19.88
2023-09-14T11:42:29.579Z,19.62
2023-09-14T11:45:07.227Z,19.51
2023-09-14T11:47:41.045Z,19.52
2023-09-14T11:50:11.388Z,19.29
2023-09-14T11:52:38.197Z,19.20
2023-09-14T11:55:05.962Z,19.02
2023-09-14T11:57:32.910Z,19.37
2023-09-14T12:00:00.532Z,19.67
2023-09-14T12:02:27.504Z,19.62
2023-09-14T12:04:54.418Z,19.82
2023-09-14T12:07:24.591Z,19.72
2023-09-14T12:09:51.257Z,19.61
2023-09-14T12:12:31.846Z,19.88
2023-09-14T12:14:59.197Z,19.36
2023-09-14T12:17:27.620Z,19.77
2023-09-14T12:19:59.047Z,19.59
2023-09-14T12:22:28.517Z,19.29
2023-09-14T12:24:56.403Z,19.25
2023-09-14T12:27:23.755Z,19.37
2023-09-14T12:29:51.292Z,19.61
2023-09-14T12:32:18.626Z,19.54
2023-09-14T12:34:46.044Z,19.56
2023-09-14T12:37:17.659Z,19.90
2023-09-14T12:40:02.784Z,20.02
2023-09-14T12:42:29.498Z,20.21
2023-09-14T12:44:56.059Z,20.10
2023-09-14T12:47:22.758Z,19.70
2023-09-14T12:49:49.294Z,19.62
2023-09-14T12:52:16.623Z,19.69
2023-09-14T12:54:46.105Z,19.63
2023-09-14T12:57:16.963Z,19.96
2023-09-14T13:00:13.053Z,19.86
2023-09-14T13:02:52.925Z,19.45
2023-09-14T13:05:28.268Z,19.95
2023-09-14T13:07:59.297Z,20.42
2023-09-14T13:10:29.204Z,20.20
2023-09-14T13:13:07.675Z,20.58
2023-09-14T13:15:36.014Z,20.41
2023-09-14T13:18:09.977Z,20.83
2023-09-14T13:20:38.896Z,20.86
2023-09-14T13:23:07.050Z,20.68
2023-09-14T13:25:34.019Z,20.75
2023-09-14T13:28:08.089Z,20.85
2023-09-14T13:30:36.245Z,20.67
2023-09-14T13:33:08.015Z,20.93
2023-09-14T13:35:37.724Z,20.76
2023-09-14T13:38:14.555Z,20.89
2023-09-14T13:40:41.245Z,20.54
2023-09-14T13:43:10.130Z,20.45
2023-09-14T13:45:53.951Z,20.67
2023-09-14T13:52:18.820Z,20.92
2023-09-14T13:54:47.968Z,20.58
2023-09-14T13:57:20.833Z,20.10
2023-09-14T13:59:50.700Z,20.27
2023-09-14T14:02:19.737Z,20.11
2023-09-14T14:04:55.240Z,20.28
2023-09-14T14:07:24.377Z,19.67
2023-09-14T14:09:56.194Z,20.08
2023-09-14T14:12:32.278Z,20.09
2023-09-14T14:15:07.084Z,20.02
2023-09-14T14:17:34.561Z,20.47
2023-09-14T14:20:01.349Z,20.27
2023-09-14T14:22:30.496Z,20.35
2023-09-14T14:25:05.743Z,20.76
2023-09-14T14:27:33.825Z,20.91
2023-09-14T14:30:49.553Z,21.27
2023-09-14T14:33:16.194Z,20.94
2023-09-14T14:35:44.842Z,20.99
2023-09-14T14:38:11.421Z,20.45
2023-09-14T14:43:52.278Z,20.76
2023-09-14T14:46:19.669Z,20.28
2023-09-14T14:48:47.294Z,20.31
2023-09-14T14:51:14.101Z,19.80
2023-09-14T14:53:42.854Z,20.69
2023-09-14T14:56:09.543Z,20.03
2023-09-14T14:58:38.851Z,20.47
2023-09-14T15:01:11.490Z,20.12
2023-09-14T15:03:42.526Z,20.46
2023-09-14T15:06:12.256Z,20.19
2023-09-14T15:08:39.959Z,19.68
2023-09-14T15:11:09.124Z,19.65
2023-09-14T15:13:42.680Z,19.59
2023-09-14T15:16:09.618Z,20.00
2023-09-14T15:18:38.812Z,19.89
2023-09-14T15:21:06.552Z,19.99
2023-09-14T15:23:33.947Z,20.00
2023-09-14T15:26:33.564Z,19.63
2023-09-14T15:29:00.975Z,19.42
2023-09-14T15:31:27.760Z,19.34
2023-09-14T15:34:10.372Z,19.34
2023-09-14T15:36:36.993Z,19.67
2023-09-14T15:39:04.573Z,19.74
2023-09-14T15:41:31.137Z,19.55
2023-09-14T15:43:57.621Z,19.88
2023-09-14T15:46:25.543Z,19.75
2023-09-14T15:53:25.372Z,19.61
2023-09-14T15:55:54.799Z,19.87
2023-09-14T15:58:21.877Z,20.04
2023-09-14T16:00:58.754Z,19.77
2023-09-14T16:03:25.722Z,19.62
2023-09-14T16:05:53.889Z,18.90
2023-09-14T16:08:20.703Z,19.25
2023-09-14T16:10:56.297Z,19.38
2023-09-14T16:13:22.802Z,19.01
2023-09-14T16:15:53.402Z,19.35
2023-09-14T16:18:20.344Z,19.19
2023-09-14T16:20:47.655Z,19.03
2023-09-14T16:23:14.480Z,18.87
2023-09-14T16:25:41.453Z,18.94
2023-09-14T16:28:09.234Z,19.10
2023-09-14T16:30:38.454Z,19.09
2023-09-14T16:33:05.594Z,18.96
2023-09-14T16:35:32.316Z,18.90
2023-09-14T16:40:51.503Z,18.73
2023-09-14T16:43:20.745Z,18.31
2023-09-14T16:45:48.957Z,18.38
2023-09-14T16:48:15.949Z,18.42
2023-09-14T16:51:42.593Z,18.12
2023-09-14T16:54:31.573Z,18.03
2023-09-14T17:00:13.205Z,18.15
2023-09-14T17:02:40.044Z,17.80
2023-09-14T17:08:22.778Z,17.78
2023-09-14T17:11:20.387Z,17.88
2023-09-14T17:14:54.092Z,17.70
2023-09-14T17:18:03.933Z,17.47
2023-09-14T17:20:30.831Z,17.45
2023-09-14T17:22:59.035Z,17.31
2023-09-14T17:26:08.242Z,17.36
2023-09-14T17:28:34.796Z,17.24
2023-09-14T17:31:01.687Z,17.23
2023-09-14T17:33:28.489Z,17.03
2023-09-14T17:35:55.157Z,17.03
2023-09-14T17:38:24.709Z,16.64
2023-09-14T17:40:52.042Z,16.70
2023-09-14T17:43:22.042Z,16.71
2023-09-14T17:45:51.460Z,16.54
2023-09-14T17:48:24.836Z,16.56
2023-09-14T17:50:56.186Z,16.30
2023-09-14T17:53:24.098Z,16.32
2023-09-14T17:55:51.112Z,16.46
2023-09-14T17:58:19.778Z,16.30
2023-09-14T18:01:09.260Z,16.25
2023-09-14T18:03:38.778Z,16.19
2023-09-14T18:06:05.607Z,16.13
2023-09-14T18:08:32.512Z,16.30
2023-09-14T18:11:01.754Z,15.96
2023-09-14T18:13:30.116Z,15.97
2023-09-14T18:15:56.961Z,16.00
2023-09-14T18:18:26.297Z,16.11
2023-09-14T18:21:14.759Z,15.97
2023-09-14T18:23:43.080Z,15.76
2023-09-14T18:26:09.981Z,15.81
2023-09-14T18:29:08.328Z,15.95
2023-09-14T18:32:42.452Z,15.84
2023-09-14T18:43:02.326Z,15.54
2023-09-14T18:53:56.894Z,15.60
2023-09-14T19:02:00.644Z,15.32
2023-09-14T19:09:16.565Z,15.49
2023-09-14T19:16:17.643Z,15.19
2023-09-14T19:21:38.513Z,15.06
2023-09-14T19:37:34.387Z,15.07
2023-09-14T19:40:42.409Z,15.10
2023-09-14T19:47:28.020Z,14.88
2023-09-14T19:50:22.610Z,14.95
2023-09-14T20:03:45.622Z,14.77
2023-09-14T20:06:15.233Z,14.70
2023-09-14T20:08:57.533Z,14.52
2023-09-14T20:11:51.288Z,14.66
2023-09-14T20:14:23.985Z,14.53
2023-09-14T20:17:02.409Z,14.59
2023-09-14T20:30:54.262Z,14.42
2023-09-14T20:36:46.808Z,14.52
2023-09-14T20:39:56.449Z,14.40
2023-09-14T20:42:29.705Z,14.32
2023-09-14T20:45:25.879Z,14.52
2023-09-14T20:48:44.120Z,14.47
2023-09-14T20:51:37.352Z,14.40
2023-09-14T20:54:04.010Z,14.46
2023-09-14T20:56:33.180Z,14.36
2023-09-14T20:59:14.701Z,14.06
2023-09-14T21:01:48.746Z,14.06
2023-09-14T21:04:18.349Z,14.26
2023-09-14T21:07:03.433Z,14.22
2023-09-14T21:09:30.160Z,14.20
2023-09-14T21:11:56.767Z,14.14
2023-09-14T21:14:27.990Z,14.20
2023-09-14T21:16:55.766Z,14.31
2023-09-14T21:19:26.975Z,14.36
2023-09-14T21:25:54.419Z,13.95
2023-09-14T21:28:21.666Z,14.06
2023-09-14T21:30:48.435Z,14.10
2023-09-14T21:33:15.181Z,14.19
2023-09-14T21:35:41.735Z,13.91
2023-09-14T21:38:08.332Z,13.94
2023-09-14T21:40:36.594Z,13.98
2023-09-14T21:43:39.576Z,13.81
2023-09-14T21:46:07.654Z,13.89
2023-09-14T21:48:35.312Z,13.86
2023-09-14T21:51:02.610Z,13.98
2023-09-14T21:53:30.121Z,13.70
2023-09-14T21:55:56.982Z,13.74
2023-09-14T21:58:24.433Z,13.95
2023-09-14T22:00:51.313Z,13.91
2023-09-14T22:03:19.856Z,13.92
2023-09-14T22:05:51.510Z,13.84
2023-09-14T22:08:19.450Z,13.86
2023-09-14T22:10:47.332Z,13.74
2023-09-14T22:13:14.944Z,13.85
2023-09-14T22:15:44.132Z,13.89
2023-09-14T22:18:13.051Z,13.83
2023-09-14T22:20:39.821Z,13.79
2023-09-14T22:23:06.568Z,13.76
2023-09-14T22:25:36.055Z,13.68
2023-09-14T22:28:03.868Z,13.57
2023-09-14T22:30:33.301Z,13.62
2023-09-14T22:33:03.227Z,13.53
2023-09-14T22:35:30.389Z,13.61
2023-09-14T22:37:57.073Z,13.52
2023-09-14T22:40:23.955Z,13.41
2023-09-14T22:42:50.608Z,13.54
2023-09-14T22:45:17.994Z,13.42
2023-09-14T22:47:44.760Z,13.63
2023-09-14T22:50:11.715Z,13.50
2023-09-14T22:52:38.346Z,13.65
2023-09-14T22:55:12.360Z,13.40
2023-09-14T22:57:40.378Z,13.37
2023-09-14T23:00:10.390Z,13.40
2023-09-14T23:02:38.137Z,13.49
2023-09-14T23:05:06.580Z,13.47
2023-09-14T23:07:33.377Z,13.52
2023-09-14T23:10:02.248Z,13.59
2023-09-14T23:12:29.525Z,13.47
2023-09-14T23:14:56.370Z,13.61
2023-09-14T23:17:23.488Z,13.61
2023-09-14T23:19:50.260Z,13.22
2023-09-14T23:22:16.809Z,13.43
2023-09-14T23:24:43.572Z,13.20
2023-09-14T23:27:10.527Z,13.52
2023-09-14T23:29:37.088Z,13.33
2023-09-14T23:32:03.726Z,13.29
2023-09-14T23:34:33.040Z,13.41
2023-09-14T23:36:59.796Z,13.25
2023-09-14T23:39:26.508Z,13.20
2023-09-14T23:41:53.204Z,13.25
2023-09-14T23:44:19.817Z,13.19
2023-09-14T23:46:47.510Z,13.00
2023-09-14T23:49:15.357Z,13.22
2023-09-14T23:51:43.637Z,13.09
2023-09-14T23:54:16.165Z,13.15
2023-09-14T23:56:42.913Z,13.15
2023-09-14T23:59:10.911Z,13.26
